Miguel Oliver — ECLX — position and weather

sailwx.info

Track history (hours):
 
Tides and Currents Weather Stations Pressure Air Temp Water Temp Dewpoint Dewpoint Depression Visibility Wind Speed Wind Dir Waves Ship Positions

Oceanographic research ship Miguel Oliver (Spain)

Ship's website: http://www.mapa.es/es/pesca/pags/miguel_web/index.htm

Last reported at 2014-Jul-30 07:14 UTC. Time now 2014-Jul-30 09:13 UTC.
Position N 36°57' W 007°01'.

Length 70 m; draft 4.8 m.

Type: Other ship. MMSI: 225322000.

Date/timePositionNaut miles runAvg speedWind from/ knotsBaromVisibWave heightAir tempDewpointWater temp
2014-Jul-30 07:14N 36°57' W 007°01'12 3.2
2014-Jul-30 03:33N 36°47' W 007°09'12 9.8
2014-Jul-30 02:17N 36°36' W 007°17'8 9.6
2014-Jul-30 01:27N 36°29' W 007°21'6 4.5
2014-Jul-30 00:08N 36°23' W 007°23'2 3.8
2014-Jul-29 23:33N 36°25' W 007°22'2 2.1
2014-Jul-29 22:33N 36°27' W 007°21'2 2.5
2014-Jul-29 21:33N 36°29' W 007°19'7 6.9
2014-Jul-29 20:33N 36°35' W 007°15'5 5.0
2014-Jul-29 19:33N 36°40' W 007°12'4 4.4
2014-Jul-29 18:33N 36°44' W 007°10'4 2.9
2014-Jul-29 17:09N 36°47' W 007°06'11 0.4
2014-Jul-28 10:15N 36°47' W 006°52'7 9.9
2014-Jul-28 09:33N 36°51' W 006°45'5 4.1
2014-Jul-28 08:28N 36°48' W 006°50'8 9.1
2014-Jul-28 07:33N 36°53' W 006°41'14 4.0
2014-Jul-28 04:08N 36°43' W 006°53'2 3.1
2014-Jul-28 03:28N 36°42' W 006°55'2 2.0
2014-Jul-28 02:27N 36°40' W 006°56'3 2.7
2014-Jul-28 01:33N 36°38' W 006°58'2 1.9
2014-Jul-28 00:33N 36°37' W 006°60'4 3.8
2014-Jul-27 23:33N 36°34' W 007°03'3 2.9
2014-Jul-27 22:26N 36°31' W 007°05'4 4.9
2014-Jul-27 21:33N 36°31' W 006°60'10 9.7
2014-Jul-27 20:33N 36°33' W 006°48'5 4.7
2014-Jul-27 19:33N 36°35' W 006°43'5 5.0
2014-Jul-27 18:27N 36°40' W 006°45'2 0.7
2014-Jul-27 15:15N 36°39' W 006°47'1 1.7
2014-Jul-27 14:26N 36°39' W 006°46'2 1.1
2014-Jul-27 12:26N 36°41' W 006°44'1 1.3
2014-Jul-27 11:24N 36°42' W 006°43'5 1.1
2014-Jul-27 06:33N 36°36' W 006°42'1210.3
2014-Jul-27 05:22N 36°29' W 006°55'1 1.7
2014-Jul-27 04:33N 36°30' W 006°54'2 2.0
2014-Jul-27 03:22N 36°32' W 006°51'2 2.2
2014-Jul-27 02:22N 36°33' W 006°49'3 2.6
2014-Jul-27 01:24N 36°34' W 006°46'7 5.7
2014-Jul-27 00:15N 36°38' W 006°40'3 4.6
2014-Jul-26 23:32N 36°40' W 006°36'5 5.3
2014-Jul-26 22:33N 36°45' W 006°33'16 1.3
2014-Jul-26 10:31N 36°38' W 006°51'8 7.9
2014-Jul-26 09:33N 36°31' W 006°47'9 9.1
2014-Jul-26 08:32N 36°36' W 006°37'10 2.4
2014-Jul-26 04:22N 36°30' W 006°28'5 6.4
2014-Jul-26 03:33N 36°27' W 006°33'6 3.1
2014-Jul-26 01:33N 36°23' W 006°39'3 3.1
2014-Jul-26 00:32N 36°21' W 006°42'7 2.2
2014-Jul-25 21:10N 36°17' W 006°50'10 0.6
2014-Jul-25 03:22N 36°07' W 006°46'2 2.0
2014-Jul-25 02:23N 36°08' W 006°44'32 0.8
2014-Jul-23 10:20N 36°32' W 006°17'  
Track history (hours):
 
Tides and Currents Weather Stations Pressure Air Temp Water Temp Dewpoint Dewpoint Depression Visibility Wind Speed Wind Dir Waves Ship Positions

Oceanographic research ship Miguel Oliver (Spain)

Ship's website: http://www.mapa.es/es/pesca/pags/miguel_web/index.htm

Last reported at 2014-Jul-30 07:14 UTC. Time now 2014-Jul-30 09:13 UTC.
Position N 36°57' W 007°01'.

Length 70 m; draft 4.8 m.

Type: Other ship. MMSI: 225322000.

Date/timePositionNaut miles runAvg speedWind from/ knotsBaromVisibWave heightAir tempDewpointWater temp
2014-Jul-30 07:14N 36°57' W 007°01'12 3.2
2014-Jul-30 03:33N 36°47' W 007°09'12 9.8
2014-Jul-30 02:17N 36°36' W 007°17'8 9.6
2014-Jul-30 01:27N 36°29' W 007°21'6 4.5
2014-Jul-30 00:08N 36°23' W 007°23'2 3.8
2014-Jul-29 23:33N 36°25' W 007°22'2 2.1
2014-Jul-29 22:33N 36°27' W 007°21'2 2.5
2014-Jul-29 21:33N 36°29' W 007°19'7 6.9
2014-Jul-29 20:33N 36°35' W 007°15'5 5.0
2014-Jul-29 19:33N 36°40' W 007°12'4 4.4
2014-Jul-29 18:33N 36°44' W 007°10'4 2.9
2014-Jul-29 17:09N 36°47' W 007°06'11 0.4
2014-Jul-28 10:15N 36°47' W 006°52'7 9.9
2014-Jul-28 09:33N 36°51' W 006°45'5 4.1
2014-Jul-28 08:28N 36°48' W 006°50'8 9.1
2014-Jul-28 07:33N 36°53' W 006°41'14 4.0
2014-Jul-28 04:08N 36°43' W 006°53'2 3.1
2014-Jul-28 03:28N 36°42' W 006°55'2 2.0
2014-Jul-28 02:27N 36°40' W 006°56'3 2.7
2014-Jul-28 01:33N 36°38' W 006°58'2 1.9
2014-Jul-28 00:33N 36°37' W 006°60'4 3.8
2014-Jul-27 23:33N 36°34' W 007°03'3 2.9
2014-Jul-27 22:26N 36°31' W 007°05'4 4.9
2014-Jul-27 21:33N 36°31' W 006°60'10 9.7
2014-Jul-27 20:33N 36°33' W 006°48'5 4.7
2014-Jul-27 19:33N 36°35' W 006°43'5 5.0
2014-Jul-27 18:27N 36°40' W 006°45'2 0.7
2014-Jul-27 15:15N 36°39' W 006°47'1 1.7
2014-Jul-27 14:26N 36°39' W 006°46'2 1.1
2014-Jul-27 12:26N 36°41' W 006°44'1 1.3
2014-Jul-27 11:24N 36°42' W 006°43'5 1.1
2014-Jul-27 06:33N 36°36' W 006°42'1210.3
2014-Jul-27 05:22N 36°29' W 006°55'1 1.7
2014-Jul-27 04:33N 36°30' W 006°54'2 2.0
2014-Jul-27 03:22N 36°32' W 006°51'2 2.2
2014-Jul-27 02:22N 36°33' W 006°49'3 2.6
2014-Jul-27 01:24N 36°34' W 006°46'7 5.7
2014-Jul-27 00:15N 36°38' W 006°40'3 4.6
2014-Jul-26 23:32N 36°40' W 006°36'5 5.3
2014-Jul-26 22:33N 36°45' W 006°33'16 1.3
2014-Jul-26 10:31N 36°38' W 006°51'8 7.9
2014-Jul-26 09:33N 36°31' W 006°47'9 9.1
2014-Jul-26 08:32N 36°36' W 006°37'10 2.4
2014-Jul-26 04:22N 36°30' W 006°28'5 6.4
2014-Jul-26 03:33N 36°27' W 006°33'6 3.1
2014-Jul-26 01:33N 36°23' W 006°39'3 3.1
2014-Jul-26 00:32N 36°21' W 006°42'7 2.2
2014-Jul-25 21:10N 36°17' W 006°50'10 0.6
2014-Jul-25 03:22N 36°07' W 006°46'2 2.0
2014-Jul-25 02:23N 36°08' W 006°44'32 0.8
2014-Jul-23 10:20N 36°32' W 006°17'  

Dump ship's entire track history